createdAt,value
2019-01-10T00:00:19.155Z,66.54
2019-01-10T00:02:46.595Z,66.35
2019-01-10T00:05:13.941Z,66.30
2019-01-10T00:07:41.360Z,66.39
2019-01-10T00:10:09.931Z,67.09
2019-01-10T00:12:39.496Z,67.00
2019-01-10T00:15:09.927Z,66.90
2019-01-10T00:17:37.428Z,66.71
2019-01-10T00:20:05.512Z,66.56
2019-01-10T00:22:33.045Z,66.65
2019-01-10T00:25:00.379Z,66.63
2019-01-10T00:27:38.629Z,66.47
2019-01-10T00:30:20.191Z,66.53
2019-01-10T00:32:47.580Z,66.64
2019-01-10T00:35:16.812Z,66.74
2019-01-10T00:37:47.986Z,66.74
2019-01-10T00:40:15.425Z,66.78
2019-01-10T00:42:49.255Z,66.79
2019-01-10T00:45:14.642Z,66.69
2019-01-10T00:47:42.273Z,66.46
2019-01-10T00:50:21.189Z,66.17
2019-01-10T00:52:50.763Z,66.45
2019-01-10T00:55:20.607Z,66.09
2019-01-10T00:57:54.789Z,66.18
2019-01-10T01:00:24.710Z,65.74
2019-01-10T01:02:57.194Z,65.91
2019-01-10T01:05:24.820Z,65.86
2019-01-10T01:07:53.446Z,66.02
2019-01-10T01:10:23.005Z,66.11
2019-01-10T01:12:58.205Z,66.02
2019-01-10T01:15:19.951Z,66.30
2019-01-10T01:17:47.539Z,66.35
2019-01-10T01:20:17.615Z,66.05
2019-01-10T01:22:45.114Z,65.83
2019-01-10T01:25:13.378Z,65.74
2019-01-10T01:27:40.679Z,66.42
2019-01-10T01:30:12.092Z,66.60
2019-01-10T01:32:39.412Z,67.08
2019-01-10T01:35:06.745Z,67.17
2019-01-10T01:37:34.250Z,67.37
2019-01-10T01:40:01.885Z,66.76
2019-01-10T01:42:29.217Z,66.59
2019-01-10T01:44:57.042Z,66.35
2019-01-10T01:47:24.432Z,66.21
2019-01-10T01:49:51.701Z,66.41
2019-01-10T01:52:18.930Z,66.59
2019-01-10T01:54:48.233Z,67.05
2019-01-10T01:57:15.503Z,66.98
2019-01-10T01:59:42.875Z,66.91
2019-01-10T02:02:10.144Z,66.96
2019-01-10T02:04:37.378Z,67.09
2019-01-10T02:07:04.703Z,67.44
2019-01-10T02:09:31.960Z,67.62
2019-01-10T02:11:59.231Z,68.19
2019-01-10T02:14:26.464Z,68.41
2019-01-10T02:16:54.946Z,68.58
2019-01-10T02:19:22.196Z,68.99
2019-01-10T02:21:49.536Z,69.09
2019-01-10T02:24:16.827Z,68.98
2019-01-10T02:26:44.123Z,69.11
2019-01-10T02:29:11.713Z,69.30
2019-01-10T02:31:38.977Z,69.08
2019-01-10T02:34:06.193Z,68.86
2019-01-10T02:36:33.437Z,68.98
2019-01-10T02:39:00.655Z,69.01
2019-01-10T02:41:30.240Z,69.09
2019-01-10T02:43:57.508Z,68.95
2019-01-10T02:46:24.806Z,69.03
2019-01-10T02:48:54.584Z,69.07
2019-01-10T02:51:21.902Z,68.86
2019-01-10T02:53:49.121Z,68.81
2019-01-10T02:56:16.484Z,68.90
2019-01-10T02:58:45.980Z,68.43
2019-01-10T03:01:13.223Z,68.10
2019-01-10T03:03:40.510Z,67.96
2019-01-10T03:06:07.851Z,68.17
2019-01-10T03:08:35.095Z,68.17
2019-01-10T03:11:02.386Z,68.06
2019-01-10T03:13:36.835Z,68.46
2019-01-10T03:16:01.335Z,68.54
2019-01-10T03:18:41.171Z,68.51
2019-01-10T03:21:08.513Z,68.48
2019-01-10T03:23:35.717Z,68.31
2019-01-10T03:26:03.066Z,68.68
2019-01-10T03:28:31.774Z,68.58
2019-01-10T03:30:59.019Z,68.93
2019-01-10T03:33:26.333Z,68.87
2019-01-10T03:35:53.706Z,68.82
2019-01-10T03:38:21.217Z,68.95
2019-01-10T03:40:48.460Z,69.15
2019-01-10T03:43:20.251Z,68.53
2019-01-10T03:45:47.647Z,68.69
2019-01-10T03:48:14.917Z,68.48
2019-01-10T03:50:42.197Z,68.20
2019-01-10T03:53:17.292Z,68.61
2019-01-10T03:55:45.501Z,68.78
2019-01-10T03:58:13.100Z,68.49
2019-01-10T04:00:40.474Z,68.32
2019-01-10T04:03:07.712Z,68.45
2019-01-10T04:05:34.994Z,68.55
2019-01-10T04:08:02.479Z,68.53
2019-01-10T04:10:29.693Z,68.25
2019-01-10T04:13:03.515Z,68.05
2019-01-10T04:15:32.692Z,68.28
2019-01-10T04:18:01.260Z,68.45
2019-01-10T04:20:53.139Z,68.59
2019-01-10T04:23:25.623Z,68.12
2019-01-10T04:25:52.861Z,68.24
2019-01-10T04:28:47.310Z,68.75
2019-01-10T04:31:14.654Z,68.66
2019-01-10T04:33:57.590Z,68.89
2019-01-10T04:36:52.242Z,68.96
2019-01-10T04:39:19.546Z,68.80
2019-01-10T04:42:35.410Z,68.89
2019-01-10T04:45:02.912Z,68.68
2019-01-10T04:47:33.134Z,68.72
2019-01-10T04:50:00.393Z,68.86
2019-01-10T04:52:27.712Z,68.95
2019-01-10T04:54:56.005Z,68.98
2019-01-10T04:57:27.026Z,69.37
2019-01-10T05:00:00.824Z,69.48
2019-01-10T05:02:28.044Z,69.63
2019-01-10T05:04:55.250Z,70.06
2019-01-10T05:07:22.613Z,70.08
2019-01-10T05:09:50.183Z,70.52
2019-01-10T05:12:17.416Z,70.74
2019-01-10T05:14:44.626Z,70.21
2019-01-10T05:17:12.144Z,70.51
2019-01-10T05:19:39.369Z,70.34
2019-01-10T05:22:09.047Z,70.08
2019-01-10T05:24:51.952Z,70.03
2019-01-10T05:28:06.192Z,70.24
2019-01-10T05:30:33.475Z,70.50
2019-01-10T05:33:00.713Z,70.34
2019-01-10T05:35:27.990Z,70.51
2019-01-10T05:37:55.205Z,70.38
2019-01-10T05:40:22.506Z,70.25
2019-01-10T05:42:49.815Z,70.31
2019-01-10T05:45:17.353Z,70.21
2019-01-10T05:47:44.613Z,70.16
2019-01-10T05:50:58.026Z,69.86
2019-01-10T05:54:01.984Z,69.75
2019-01-10T05:56:53.938Z,69.64
2019-01-10T05:59:56.600Z,69.62
2019-01-10T06:02:24.048Z,69.49
2019-01-10T06:04:51.734Z,69.61
2019-01-10T06:07:18.975Z,69.49
2019-01-10T06:09:51.272Z,69.33
2019-01-10T06:12:19.985Z,69.40
2019-01-10T06:14:47.910Z,69.27
2019-01-10T06:17:16.551Z,69.26
2019-01-10T06:19:47.666Z,69.33
2019-01-10T06:22:15.036Z,69.21
2019-01-10T06:24:46.477Z,69.12
2019-01-10T06:27:13.740Z,69.16
2019-01-10T06:29:41.112Z,69.19
2019-01-10T06:32:14.810Z,68.98
2019-01-10T06:34:42.060Z,68.94
2019-01-10T06:37:09.334Z,69.08
2019-01-10T06:39:36.642Z,68.93
2019-01-10T06:42:03.902Z,68.81
2019-01-10T06:44:31.283Z,68.73
2019-01-10T06:46:58.584Z,68.59
2019-01-10T06:49:25.840Z,68.67
2019-01-10T06:51:53.069Z,68.73
2019-01-10T06:54:20.320Z,68.87
2019-01-10T06:56:47.691Z,68.79
2019-01-10T06:59:14.912Z,68.71
2019-01-10T07:01:42.174Z,68.63
2019-01-10T07:04:09.421Z,68.49
2019-01-10T07:06:37.835Z,68.42
2019-01-10T07:09:09.944Z,68.37
2019-01-10T07:11:37.249Z,68.29
2019-01-10T07:14:04.512Z,68.17
2019-01-10T07:16:31.835Z,68.10
2019-01-10T07:18:59.378Z,68.07
2019-01-10T07:21:26.653Z,68.01
2019-01-10T07:23:53.874Z,67.97
2019-01-10T07:26:21.204Z,67.95
2019-01-10T07:28:48.517Z,67.96
2019-01-10T07:31:28.545Z,67.92
2019-01-10T07:33:59.596Z,67.87
2019-01-10T07:36:27.952Z,67.81
2019-01-10T07:38:55.243Z,67.77
2019-01-10T07:41:22.468Z,67.76
2019-01-10T07:43:49.888Z,67.76
2019-01-10T07:46:17.389Z,67.77
2019-01-10T07:48:48.543Z,67.76
2019-01-10T07:51:15.805Z,67.71
2019-01-10T07:53:43.177Z,67.69
2019-01-10T07:56:10.397Z,67.71
2019-01-10T07:58:38.049Z,67.72
2019-01-10T08:01:05.286Z,67.69
2019-01-10T08:03:32.865Z,67.68
2019-01-10T08:06:00.127Z,67.67
2019-01-10T08:08:27.586Z,67.69
2019-01-10T08:10:54.935Z,67.71
2019-01-10T08:13:22.199Z,67.73
2019-01-10T08:15:49.646Z,67.79
2019-01-10T08:18:16.870Z,67.95
2019-01-10T08:20:44.712Z,68.06
2019-01-10T08:23:12.941Z,68.68
2019-01-10T08:25:42.512Z,68.58
2019-01-10T08:28:09.803Z,71.75
2019-01-10T08:30:37.014Z,71.82
2019-01-10T08:33:04.341Z,69.58
2019-01-10T08:35:31.588Z,68.16
2019-01-10T08:37:59.111Z,67.57
2019-01-10T08:40:26.397Z,67.21
2019-01-10T08:42:53.958Z,67.12
2019-01-10T08:45:22.165Z,67.06
2019-01-10T08:47:49.929Z,67.08
2019-01-10T08:50:19.849Z,67.16
2019-01-10T08:52:47.523Z,66.87
2019-01-10T08:55:17.136Z,65.46
2019-01-10T08:57:44.460Z,65.16
2019-01-10T09:00:14.484Z,64.00
2019-01-10T09:02:41.873Z,63.39
2019-01-10T09:05:09.586Z,62.30
2019-01-10T09:07:36.936Z,61.19
2019-01-10T09:10:06.818Z,59.45
2019-01-10T09:12:34.022Z,59.70
2019-01-10T09:15:01.365Z,59.72
2019-01-10T09:17:28.576Z,58.95
2019-01-10T09:19:55.789Z,58.71
2019-01-10T09:22:23.207Z,58.48
2019-01-10T09:24:50.470Z,57.64
2019-01-10T09:27:17.747Z,58.90
2019-01-10T09:29:45.314Z,59.21
2019-01-10T09:32:12.579Z,59.34
2019-01-10T09:34:39.893Z,59.55
2019-01-10T09:37:07.194Z,59.81
2019-01-10T09:39:34.419Z,59.62
2019-01-10T09:42:01.637Z,59.53
2019-01-10T09:44:28.900Z,60.02
2019-01-10T09:46:56.336Z,60.04
2019-01-10T09:49:25.710Z,60.24
2019-01-10T09:51:53.067Z,60.29
2019-01-10T09:54:20.372Z,60.31
2019-01-10T09:56:47.625Z,60.84
2019-01-10T09:59:14.879Z,61.00
2019-01-10T10:01:42.119Z,61.06
2019-01-10T10:04:09.415Z,61.69
2019-01-10T10:06:36.654Z,61.46
2019-01-10T10:09:06.792Z,61.55
2019-01-10T10:11:34.486Z,61.50
2019-01-10T10:14:01.786Z,61.60
2019-01-10T10:16:29.270Z,61.95
2019-01-10T10:19:02.594Z,61.81
2019-01-10T10:21:29.845Z,61.68
2019-01-10T10:23:57.147Z,61.58
2019-01-10T10:26:24.442Z,61.38
2019-01-10T10:28:51.720Z,61.38
2019-01-10T10:31:19.064Z,61.35
2019-01-10T10:33:46.364Z,61.31
2019-01-10T10:36:13.876Z,61.07
2019-01-10T10:38:41.143Z,60.96
2019-01-10T10:41:08.424Z,60.94
2019-01-10T10:43:35.838Z,60.90
2019-01-10T10:46:03.271Z,60.83
2019-01-10T10:48:33.791Z,60.61
2019-01-10T10:51:01.039Z,60.60
2019-01-10T10:53:28.424Z,60.61
2019-01-10T10:55:55.752Z,60.57
2019-01-10T10:58:23.009Z,60.53
2019-01-10T11:00:52.325Z,60.62
2019-01-10T11:03:20.636Z,60.42
2019-01-10T11:05:47.870Z,60.26
2019-01-10T11:08:15.553Z,60.28
2019-01-10T11:10:56.353Z,60.09
2019-01-10T11:13:31.056Z,59.72
2019-01-10T11:15:58.535Z,59.72
2019-01-10T11:53:35.522Z,59.78
2019-01-10T11:56:03.230Z,59.20
2019-01-10T11:58:30.602Z,59.33
2019-01-10T12:00:58.187Z,59.30
2019-01-10T12:03:46.386Z,58.06
2019-01-10T12:06:16.353Z,57.78
2019-01-10T12:09:01.345Z,57.17
2019-01-10T12:11:28.877Z,57.59
2019-01-10T12:13:56.199Z,57.30
2019-01-10T12:16:28.505Z,57.28
2019-01-10T12:18:59.166Z,57.42
2019-01-10T12:21:21.860Z,57.42
2019-01-10T12:23:49.241Z,57.61
2019-01-10T12:26:16.514Z,58.30
2019-01-10T12:28:43.876Z,58.78
2019-01-10T12:31:11.158Z,59.83
2019-01-10T12:33:38.595Z,60.13
2019-01-10T12:36:05.942Z,60.94
2019-01-10T12:38:33.223Z,61.82
2019-01-10T12:41:00.463Z,61.90
2019-01-10T12:43:27.780Z,62.17
2019-01-10T12:45:55.096Z,63.01
2019-01-10T12:48:22.508Z,63.32
2019-01-10T12:50:49.835Z,63.40
2019-01-10T12:53:17.128Z,63.98
2019-01-10T12:55:44.488Z,63.97
2019-01-10T12:58:11.742Z,64.18
2019-01-10T13:00:38.992Z,64.76
2019-01-10T13:03:07.321Z,64.78
2019-01-10T13:05:35.009Z,64.78
2019-01-10T13:08:04.134Z,64.86
2019-01-10T13:10:34.189Z,65.04
2019-01-10T13:13:01.926Z,65.33
2019-01-10T13:15:29.945Z,65.86
2019-01-10T13:17:57.714Z,66.27
2019-01-10T13:20:25.708Z,67.20
2019-01-10T13:22:53.679Z,67.03
2019-01-10T13:25:22.181Z,67.85
2019-01-10T13:27:50.894Z,67.18
2019-01-10T13:30:20.672Z,67.15
2019-01-10T13:32:49.047Z,67.10
2019-01-10T13:35:17.192Z,66.94
2019-01-10T13:37:45.135Z,67.21
2019-01-10T13:40:12.925Z,67.54
2019-01-10T13:42:43.722Z,67.58
2019-01-10T13:45:12.423Z,67.45
2019-01-10T13:47:40.285Z,67.33
2019-01-10T13:50:15.598Z,67.76
2019-01-10T13:52:43.526Z,68.05
2019-01-10T13:55:12.102Z,67.93
2019-01-10T13:57:39.859Z,69.20
2019-01-10T14:00:12.397Z,68.88
2019-01-10T14:02:40.199Z,69.22
2019-01-10T14:05:10.610Z,69.29
2019-01-10T14:07:37.572Z,69.49
2019-01-10T14:10:06.368Z,69.74
2019-01-10T14:12:33.887Z,70.62
2019-01-10T14:15:01.715Z,70.67
2019-01-10T14:17:29.470Z,70.45
2019-01-10T14:19:57.312Z,70.27
2019-01-10T14:22:24.970Z,70.24
2019-01-10T14:24:53.171Z,70.71
2019-01-10T14:27:20.609Z,70.78
2019-01-10T14:29:48.100Z,70.04
2019-01-10T14:32:16.740Z,70.19
2019-01-10T14:34:44.219Z,69.93
2019-01-10T14:37:11.461Z,70.09
2019-01-10T14:39:38.703Z,70.59
2019-01-10T14:42:06.137Z,70.61
2019-01-10T14:44:33.351Z,70.45
2019-01-10T14:47:00.610Z,70.16
2019-01-10T14:49:27.877Z,70.81
2019-01-10T14:51:55.079Z,70.87
2019-01-10T14:54:22.379Z,70.77
2019-01-10T14:56:49.713Z,70.87
2019-01-10T14:59:16.932Z,70.97
2019-01-10T15:01:44.299Z,71.42
2019-01-10T15:04:11.539Z,71.39
2019-01-10T15:06:38.808Z,71.93
2019-01-10T15:09:06.996Z,71.90
2019-01-10T15:11:34.381Z,74.17
2019-01-10T15:14:01.693Z,72.22
2019-01-10T15:16:28.925Z,72.32
2019-01-10T15:18:56.139Z,72.47
2019-01-10T15:21:23.384Z,73.17
2019-01-10T15:23:50.673Z,73.47
2019-01-10T15:26:17.939Z,73.23
2019-01-10T15:28:45.173Z,73.67
2019-01-10T15:31:12.639Z,73.01
2019-01-10T15:33:39.982Z,72.96
2019-01-10T15:36:07.229Z,73.11
2019-01-10T15:38:34.933Z,73.34
2019-01-10T15:41:02.663Z,74.02
2019-01-10T15:43:29.935Z,74.07
2019-01-10T15:45:57.167Z,75.05
2019-01-10T15:48:24.395Z,75.29
2019-01-10T15:50:51.742Z,74.36
2019-01-10T15:53:19.009Z,75.35
2019-01-10T15:55:46.297Z,75.83
2019-01-10T15:58:13.604Z,75.95
2019-01-10T16:00:40.824Z,75.54
2019-01-10T16:03:08.363Z,77.12
2019-01-10T16:05:35.876Z,76.35
2019-01-10T16:08:04.344Z,76.33
2019-01-10T16:10:31.976Z,76.56
2019-01-10T16:12:59.506Z,76.53
2019-01-10T16:15:26.732Z,76.71
2019-01-10T16:17:54.047Z,76.25
2019-01-10T16:20:21.453Z,77.01
2019-01-10T16:22:48.652Z,77.28
2019-01-10T16:25:16.413Z,76.06
2019-01-10T16:27:43.732Z,75.37
2019-01-10T16:30:22.021Z,74.98
2019-01-10T16:32:49.277Z,75.27
2019-01-10T16:35:16.570Z,74.99
2019-01-10T16:37:44.243Z,75.23
2019-01-10T16:40:12.101Z,75.37
2019-01-10T16:42:39.368Z,75.91
2019-01-10T16:45:09.662Z,76.12
2019-01-10T16:47:36.997Z,76.04
2019-01-10T16:50:05.337Z,76.36
2019-01-10T16:52:32.900Z,75.76
2019-01-10T16:55:00.313Z,75.94
2019-01-10T16:57:27.588Z,75.81
2019-01-10T16:59:54.855Z,75.78
2019-01-10T17:02:22.501Z,75.60
2019-01-10T17:04:50.010Z,75.55
2019-01-10T17:07:17.243Z,75.63
2019-01-10T17:09:44.489Z,75.87
2019-01-10T17:12:11.687Z,75.10
2019-01-10T17:14:38.937Z,75.38
2019-01-10T17:17:06.317Z,75.39
2019-01-10T17:19:33.602Z,75.57
2019-01-10T17:22:02.247Z,75.17
2019-01-10T17:24:29.527Z,75.21
2019-01-10T17:26:56.772Z,75.36
2019-01-10T17:29:24.003Z,75.54
2019-01-10T17:31:51.238Z,75.25
2019-01-10T17:34:18.525Z,75.49
2019-01-10T17:36:45.842Z,75.52
2019-01-10T17:39:14.034Z,77.17
2019-01-10T17:41:41.258Z,75.91
2019-01-10T17:44:08.940Z,75.75
2019-01-10T17:46:36.203Z,75.70
2019-01-10T17:49:03.795Z,75.52
2019-01-10T17:51:31.106Z,75.39
2019-01-10T17:53:58.442Z,75.47
2019-01-10T17:56:25.750Z,75.61
2019-01-10T17:58:53.099Z,75.70
2019-01-10T18:01:20.543Z,75.81
2019-01-10T18:03:47.795Z,75.94
2019-01-10T18:06:15.269Z,76.11
2019-01-10T18:08:42.517Z,76.03
2019-01-10T18:11:09.852Z,76.36
2019-01-10T18:13:37.119Z,76.17
2019-01-10T18:16:05.343Z,76.34
2019-01-10T18:18:33.579Z,75.91
2019-01-10T18:21:01.112Z,75.78
2019-01-10T18:23:28.332Z,75.96
2019-01-10T18:25:56.129Z,75.93
2019-01-10T18:28:26.252Z,76.15
2019-01-10T18:30:53.708Z,76.50
2019-01-10T18:33:20.986Z,76.34
2019-01-10T18:35:48.278Z,76.61
2019-01-10T18:38:15.665Z,77.00
2019-01-10T18:40:43.028Z,77.01
2019-01-10T18:43:10.403Z,77.42
2019-01-10T18:45:38.062Z,76.97
2019-01-10T18:48:05.340Z,77.02
2019-01-10T18:50:32.554Z,76.72
2019-01-10T18:52:59.857Z,77.21
2019-01-10T18:55:27.262Z,77.24
2019-01-10T18:57:54.468Z,77.37
2019-01-10T19:00:29.079Z,77.05
2019-01-10T19:02:57.628Z,77.11
2019-01-10T19:05:27.563Z,77.57
2019-01-10T19:07:58.020Z,76.96
2019-01-10T19:10:25.364Z,76.99
2019-01-10T19:12:52.595Z,77.31
2019-01-10T19:15:20.073Z,77.16
2019-01-10T19:17:47.312Z,77.90
2019-01-10T19:20:17.016Z,77.62
2019-01-10T19:22:44.282Z,77.83
2019-01-10T19:25:11.598Z,77.68
2019-01-10T19:27:38.882Z,77.89
2019-01-10T19:30:12.382Z,77.75
2019-01-10T19:32:39.776Z,78.02
2019-01-10T19:35:08.128Z,78.00
2019-01-10T19:37:35.364Z,77.71
2019-01-10T19:40:03.102Z,77.79
2019-01-10T19:42:30.317Z,78.62
2019-01-10T19:44:57.521Z,78.68
2019-01-10T19:47:24.780Z,78.77
2019-01-10T19:49:58.267Z,78.31
2019-01-10T19:52:21.100Z,77.84
2019-01-10T19:54:48.380Z,78.12
2019-01-10T19:57:15.640Z,78.31
2019-01-10T19:59:42.870Z,78.43
2019-01-10T20:02:10.422Z,78.53
2019-01-10T20:04:38.940Z,78.35
2019-01-10T20:07:06.673Z,78.70
2019-01-10T20:09:33.877Z,78.38
2019-01-10T20:12:01.103Z,78.03
2019-01-10T20:14:28.693Z,78.85
2019-01-10T20:16:56.028Z,78.60
2019-01-10T20:19:24.182Z,78.23
2019-01-10T20:21:51.601Z,78.10
2019-01-10T20:24:19.089Z,78.24
2019-01-10T20:26:46.626Z,78.67
2019-01-10T20:29:14.057Z,78.37
2019-01-10T20:31:41.488Z,78.43
2019-01-10T20:34:08.813Z,78.28
2019-01-10T20:36:38.544Z,79.77
2019-01-10T20:39:07.755Z,78.67
2019-01-10T20:41:35.039Z,78.27
2019-01-10T20:44:02.304Z,77.93
2019-01-10T20:46:29.521Z,78.51
2019-01-10T20:48:56.917Z,79.13
2019-01-10T20:51:24.391Z,78.41
2019-01-10T20:53:51.713Z,78.47
2019-01-10T20:56:19.254Z,78.47
2019-01-10T20:58:46.973Z,78.47
2019-01-10T21:01:14.265Z,78.29
2019-01-10T21:03:41.485Z,78.18
2019-01-10T21:06:10.811Z,78.40
2019-01-10T21:08:38.005Z,78.50
2019-01-10T21:11:05.227Z,78.35
2019-01-10T21:13:34.416Z,78.70
2019-01-10T21:16:01.741Z,79.09
2019-01-10T21:18:28.973Z,78.75
2019-01-10T21:20:56.202Z,79.00
2019-01-10T21:23:23.576Z,79.02
2019-01-10T21:25:51.627Z,78.80
2019-01-10T21:28:21.483Z,79.59
2019-01-10T21:30:48.804Z,79.45
2019-01-10T21:33:16.032Z,78.90
2019-01-10T21:35:43.285Z,78.78
2019-01-10T21:38:10.502Z,78.77
2019-01-10T21:40:37.712Z,78.80
2019-01-10T21:43:04.998Z,79.30
2019-01-10T21:45:32.308Z,79.11
2019-01-10T21:47:59.519Z,79.89
2019-01-10T21:50:26.976Z,79.33
2019-01-10T21:52:54.431Z,79.06
2019-01-10T21:55:22.049Z,78.87
2019-01-10T21:57:49.304Z,78.77
2019-01-10T22:00:20.465Z,78.84
2019-01-10T22:02:47.682Z,79.04
2019-01-10T22:05:15.015Z,78.89
2019-01-10T22:07:42.300Z,78.79
2019-01-10T22:10:10.092Z,79.23
2019-01-10T22:12:37.391Z,79.31
2019-01-10T22:15:06.474Z,79.35
2019-01-10T22:17:33.687Z,78.76
2019-01-10T22:20:00.974Z,78.87
2019-01-10T22:22:28.475Z,78.61
2019-01-10T22:24:55.685Z,79.04
2019-01-10T22:27:22.939Z,79.51
2019-01-10T22:29:50.217Z,79.67
2019-01-10T22:32:17.433Z,79.95
2019-01-10T22:34:44.693Z,80.04
2019-01-10T22:37:11.914Z,79.57
2019-01-10T22:39:39.182Z,79.47
2019-01-10T22:42:06.458Z,79.50
2019-01-10T22:44:33.675Z,79.57
2019-01-10T22:47:00.936Z,79.19
2019-01-10T22:49:28.223Z,79.40
2019-01-10T22:51:55.413Z,79.35
2019-01-10T22:54:22.621Z,79.22
2019-01-10T22:56:49.920Z,78.94
2019-01-10T22:59:17.353Z,79.25
2019-01-10T23:01:49.097Z,79.45
2019-01-10T23:04:25.664Z,79.41
2019-01-10T23:06:53.074Z,79.48
2019-01-10T23:09:20.410Z,79.68
2019-01-10T23:11:47.585Z,79.52
2019-01-10T23:14:14.773Z,79.34
2019-01-10T23:16:42.004Z,79.30
2019-01-10T23:19:09.245Z,79.18
2019-01-10T23:21:40.733Z,79.08
2019-01-10T23:24:15.720Z,78.84
2019-01-10T23:26:50.810Z,78.88
2019-01-10T23:29:17.996Z,78.86
2019-01-10T23:31:45.471Z,78.96
2019-01-10T23:34:12.706Z,79.50
2019-01-10T23:36:39.848Z,79.41
2019-01-10T23:39:26.720Z,79.83
2019-01-10T23:41:55.537Z,80.33
2019-01-10T23:44:22.812Z,79.67
2019-01-10T23:46:50.237Z,79.37
2019-01-10T23:49:17.655Z,79.51
2019-01-10T23:51:45.470Z,79.85
2019-01-10T23:54:12.843Z,80.21
2019-01-10T23:56:40.067Z,80.13
2019-01-10T23:59:07.270Z,80.02
